createdAt,value
2023-09-28T00:03:24.633Z,97157.91
2023-09-28T00:07:25.007Z,97166.22
2023-09-28T00:11:25.351Z,97175.81
2023-09-28T00:15:28.182Z,97157.75
2023-09-28T00:19:31.724Z,97168.69
2023-09-28T00:23:33.394Z,97172.50
2023-09-28T00:27:33.833Z,97148.38
2023-09-28T00:31:34.409Z,97170.50
2023-09-28T00:35:37.280Z,97176.34
2023-09-28T00:39:34.980Z,97174.63
2023-09-28T00:43:36.132Z,97183.81
2023-09-28T00:47:36.804Z,97170.66
2023-09-28T00:51:40.684Z,97180.59
2023-09-28T00:55:41.993Z,97184.34
2023-09-28T00:59:42.274Z,97195.94
2023-09-28T01:03:42.730Z,97207.44
2023-09-28T01:07:45.585Z,97199.84
2023-09-28T01:11:46.647Z,97208.50
2023-09-28T01:15:50.270Z,97198.16
2023-09-28T01:19:50.518Z,97206.50
2023-09-28T01:23:53.715Z,97207.25
2023-09-28T01:27:54.091Z,97189.97
2023-09-28T01:31:54.790Z,97196.19
2023-09-28T01:35:55.302Z,97197.47
2023-09-28T01:39:58.131Z,97198.97
2023-09-28T01:43:58.449Z,97159.88
2023-09-28T01:47:58.770Z,97188.47
2023-09-28T01:51:59.048Z,97184.00
2023-09-28T01:56:03.917Z,97169.94
2023-09-28T02:00:06.666Z,97187.19
2023-09-28T02:04:08.608Z,97184.66
2023-09-28T02:08:10.678Z,97183.34
2023-09-28T02:12:14.218Z,97191.47
2023-09-28T02:16:15.485Z,97193.44
2023-09-28T02:20:20.748Z,97192.75
2023-09-28T02:24:21.776Z,97184.25
2023-09-28T02:28:24.623Z,97179.41
2023-09-28T02:32:25.013Z,97181.38
2023-09-28T02:36:25.273Z,97190.28
2023-09-28T02:40:25.570Z,97190.88
2023-09-28T02:44:28.415Z,97184.50
2023-09-28T02:48:28.701Z,97138.22
2023-09-28T02:52:28.974Z,97187.66
2023-09-28T02:56:29.236Z,97198.75
2023-09-28T03:00:34.358Z,97183.56
2023-09-28T03:04:36.296Z,97190.69
2023-09-28T03:08:37.187Z,97202.31
2023-09-28T03:12:37.572Z,97199.09
2023-09-28T03:16:40.977Z,97190.19
2023-09-28T03:20:44.352Z,97202.59
2023-09-28T03:24:45.193Z,97201.97
2023-09-28T03:28:45.626Z,97204.09
2023-09-28T03:32:50.769Z,97207.84
2023-09-28T03:36:51.272Z,97216.72
2023-09-28T03:40:51.749Z,97204.44
2023-09-28T03:44:52.000Z,97211.69
2023-09-28T03:48:55.067Z,97208.34
2023-09-28T03:52:56.444Z,97215.91
2023-09-28T03:56:56.783Z,97198.75
2023-09-28T04:00:58.687Z,97208.47
2023-09-28T04:05:01.687Z,97196.44
2023-09-28T04:09:02.141Z,97190.00
2023-09-28T04:13:02.506Z,97212.66
2023-09-28T04:17:02.863Z,97215.75
2023-09-28T04:21:05.738Z,97209.94
2023-09-28T04:25:07.135Z,97209.31
2023-09-28T04:29:07.531Z,97214.59
2023-09-28T04:33:08.782Z,97225.88
2023-09-28T04:37:11.938Z,97224.50
2023-09-28T04:41:12.767Z,97229.91
2023-09-28T04:45:14.031Z,97240.53
2023-09-28T04:49:14.311Z,97233.88
2023-09-28T04:53:17.743Z,97228.88
2023-09-28T04:57:18.076Z,97213.38
2023-09-28T05:01:18.851Z,97228.38
2023-09-28T05:05:20.098Z,97230.22
2023-09-28T05:09:23.171Z,97226.03
2023-09-28T05:13:24.321Z,97234.47
2023-09-28T05:17:24.817Z,97245.59
2023-09-28T05:21:25.184Z,97245.00
2023-09-28T05:25:28.345Z,97258.63
2023-09-28T05:29:31.370Z,97260.75
2023-09-28T05:33:31.812Z,97273.59
2023-09-28T05:37:32.039Z,97263.28
2023-09-28T05:41:34.877Z,97268.63
2023-09-28T05:45:35.362Z,97266.72
2023-09-28T05:49:35.849Z,97273.06
2023-09-28T05:53:36.124Z,97275.84
2023-09-28T05:57:38.995Z,97268.84
2023-09-28T06:01:40.224Z,97279.72
2023-09-28T06:05:40.544Z,97277.34
2023-09-28T06:09:40.893Z,97289.03
2023-09-28T06:17:50.468Z,97296.63
2023-09-28T06:21:51.185Z,97293.72
2023-09-28T06:25:51.609Z,97290.84
2023-09-28T06:29:55.028Z,97283.13
2023-09-28T06:33:55.801Z,97285.28
2023-09-28T06:37:56.347Z,97297.44
2023-09-28T06:42:02.722Z,97304.41
2023-09-28T06:46:11.946Z,97304.41
2023-09-28T06:50:13.865Z,97297.69
2023-09-28T06:54:14.380Z,97303.00
2023-09-28T06:58:15.938Z,97319.91
2023-09-28T07:02:18.839Z,97322.91
2023-09-28T07:06:19.585Z,97322.69
2023-09-28T07:10:20.159Z,97330.72
2023-09-28T07:14:20.486Z,97337.97
2023-09-28T07:18:23.384Z,97343.59
2023-09-28T07:22:24.235Z,97336.63
2023-09-28T07:26:24.574Z,97339.81
2023-09-28T07:30:26.934Z,97339.53
2023-09-28T07:34:29.861Z,97344.38
2023-09-28T07:38:30.227Z,97357.00
2023-09-28T07:42:30.504Z,97359.44
2023-09-28T07:46:30.804Z,97347.06
2023-09-28T07:50:33.974Z,97368.78
2023-09-28T07:54:34.330Z,97375.03
2023-09-28T07:58:35.212Z,97372.75
2023-09-28T08:02:35.646Z,97377.59
2023-09-28T08:06:38.705Z,97351.16
2023-09-28T08:10:38.984Z,97354.09
2023-09-28T08:14:39.446Z,97348.56
2023-09-28T08:18:39.775Z,97345.84
2023-09-28T08:22:42.724Z,97356.28
2023-09-28T08:26:42.960Z,97356.44
2023-09-28T08:30:43.417Z,97361.06
2023-09-28T08:34:43.709Z,97355.06
2023-09-28T08:38:46.689Z,97350.28
2023-09-28T08:42:48.834Z,97351.97
2023-09-28T08:46:51.695Z,97358.19
2023-09-28T08:51:13.867Z,97339.22
2023-09-28T08:55:18.323Z,97351.34
2023-09-28T08:59:21.192Z,97349.63
2023-09-28T09:03:25.915Z,97322.13
2023-09-28T09:07:27.952Z,97338.13
2023-09-28T09:11:35.050Z,97343.84
2023-09-28T09:15:37.631Z,97351.13
2023-09-28T09:19:38.122Z,97337.88
2023-09-28T09:23:39.153Z,97336.03
2023-09-28T09:27:42.165Z,97335.38
2023-09-28T09:31:44.606Z,97319.19
2023-09-28T09:35:45.235Z,97319.97
2023-09-28T09:39:46.163Z,97328.88
2023-09-28T09:43:50.700Z,97324.91
2023-09-28T09:47:53.171Z,97325.38
2023-09-28T09:51:53.791Z,97321.84
2023-09-28T09:56:00.342Z,97320.50
2023-09-28T10:00:07.648Z,97321.75
2023-09-28T10:04:14.031Z,97313.75
2023-09-28T10:08:15.714Z,97311.38
2023-09-28T10:12:17.131Z,97310.41
2023-09-28T10:16:22.945Z,97300.69
2023-09-28T10:20:25.335Z,97298.00
2023-09-28T10:24:36.370Z,97312.34
2023-09-28T10:28:37.488Z,97294.69
2023-09-28T10:32:43.538Z,97326.56
2023-09-28T10:36:43.920Z,97318.38
2023-09-28T10:40:51.289Z,97302.16
2023-09-28T10:44:54.540Z,97296.16
2023-09-28T10:49:02.332Z,97297.19
2023-09-28T10:53:02.713Z,97295.06
2023-09-28T10:57:03.965Z,97297.91
2023-09-28T11:01:08.571Z,97299.34
2023-09-28T11:05:15.384Z,97286.56
2023-09-28T11:09:17.652Z,97292.97
2023-09-28T11:13:18.118Z,97289.56
2023-09-28T11:17:18.461Z,97292.53
2023-09-28T11:21:23.130Z,97294.50
2023-09-28T11:25:43.221Z,97289.56
2023-09-28T11:29:45.329Z,97282.72
2023-09-28T11:33:49.213Z,97269.41
2023-09-28T11:37:52.478Z,97266.97
2023-09-28T11:42:00.868Z,97272.53
2023-09-28T11:46:05.334Z,97278.88
2023-09-28T11:50:10.140Z,97275.09
2023-09-28T11:54:16.021Z,97259.25
2023-09-28T11:58:17.215Z,97250.66
2023-09-28T12:02:19.710Z,97246.78
2023-09-28T12:06:21.952Z,97260.00
2023-09-28T12:10:24.999Z,97270.50
2023-09-28T12:14:25.437Z,97274.09
2023-09-28T12:18:26.059Z,97250.81
2023-09-28T12:22:26.418Z,97270.16
2023-09-28T12:26:29.407Z,97266.59
2023-09-28T12:30:31.494Z,97255.16
2023-09-28T12:34:32.230Z,97243.00
2023-09-28T12:38:32.944Z,97246.09
2023-09-28T12:42:36.110Z,97244.06
2023-09-28T12:46:37.197Z,97238.41
2023-09-28T12:50:39.694Z,97235.78
2023-09-28T12:54:40.041Z,97239.56
2023-09-28T12:58:44.052Z,97246.00
2023-09-28T13:02:44.906Z,97248.84
2023-09-28T13:06:45.592Z,97234.13
2023-09-28T13:10:46.059Z,97211.75
2023-09-28T13:14:48.999Z,97235.38
2023-09-28T13:18:49.333Z,97241.69
2023-09-28T13:22:51.282Z,97246.47
2023-09-28T13:26:51.851Z,97243.25
2023-09-28T13:30:55.423Z,97237.72
2023-09-28T13:34:56.045Z,97220.41
2023-09-28T13:38:56.288Z,97217.94
2023-09-28T13:42:58.241Z,97212.13
2023-09-28T13:47:02.096Z,97217.50
2023-09-28T13:51:02.416Z,97212.88
2023-09-28T13:55:02.789Z,97210.91
2023-09-28T13:59:06.710Z,97233.19
2023-09-28T14:03:10.437Z,97227.63
2023-09-28T14:07:11.104Z,97206.66
2023-09-28T14:11:14.279Z,97217.06
2023-09-28T14:15:14.769Z,97203.28
2023-09-28T14:19:17.875Z,97194.75
2023-09-28T14:23:18.434Z,97201.28
2023-09-28T14:27:18.717Z,97177.16
2023-09-28T14:31:19.211Z,97189.09
2023-09-28T14:35:25.565Z,97180.03
2023-09-28T14:39:25.871Z,97180.47
2023-09-28T14:43:26.147Z,97175.63
2023-09-28T14:47:27.136Z,97180.66
2023-09-28T14:51:31.056Z,97170.13
2023-09-28T14:55:31.508Z,97178.81
2023-09-28T14:59:31.805Z,97175.47
2023-09-28T15:03:32.645Z,97170.63
2023-09-28T15:07:35.594Z,97171.66
2023-09-28T15:11:35.901Z,97174.84
2023-09-28T15:15:37.090Z,97178.09
2023-09-28T15:19:37.793Z,97173.97
2023-09-28T15:23:40.977Z,97192.47
2023-09-28T15:27:43.457Z,97181.41
2023-09-28T15:31:44.892Z,97171.25
2023-09-28T15:35:49.617Z,97167.66
2023-09-28T15:39:52.694Z,97180.03
2023-09-28T15:43:53.202Z,97180.59
2023-09-28T15:47:54.035Z,97179.75
2023-09-28T15:51:54.485Z,97159.25
2023-09-28T15:55:57.329Z,97182.41
2023-09-28T15:59:58.438Z,97182.63
2023-09-28T16:03:59.012Z,97186.31
2023-09-28T16:08:00.393Z,97191.41
2023-09-28T16:12:03.600Z,97179.00
2023-09-28T16:16:04.924Z,97191.56
2023-09-28T16:20:05.378Z,97173.59
2023-09-28T16:24:05.775Z,97203.94
2023-09-28T16:28:09.975Z,97203.88
2023-09-28T16:32:10.380Z,97199.69
2023-09-28T16:36:11.167Z,97197.50
2023-09-28T16:40:13.130Z,97189.38
2023-09-28T16:44:16.140Z,97197.22
2023-09-28T16:48:17.308Z,97173.53
2023-09-28T16:52:17.714Z,97177.47
2023-09-28T16:56:18.036Z,97198.69
2023-09-28T17:00:21.734Z,97205.22
2023-09-28T17:04:22.171Z,97207.19
2023-09-28T17:08:22.708Z,97211.97
2023-09-28T17:12:33.623Z,97210.00
2023-09-28T17:16:44.461Z,97213.97
2023-09-28T17:20:44.960Z,97216.66
2023-09-28T17:24:45.320Z,97229.66
2023-09-28T17:28:45.703Z,97220.28
2023-09-28T17:32:48.873Z,97220.88
2023-09-28T17:36:50.880Z,97231.16
2023-09-28T17:40:51.464Z,97225.03
2023-09-28T17:44:52.407Z,97230.25
2023-09-28T17:48:57.083Z,97251.03
2023-09-28T17:52:58.125Z,97248.78
2023-09-28T17:56:58.525Z,97243.75
2023-09-28T18:01:00.010Z,97247.38
2023-09-28T18:05:03.149Z,97254.13
2023-09-28T18:09:03.689Z,97242.50
2023-09-28T18:13:04.767Z,97263.81
2023-09-28T18:17:05.082Z,97261.44
2023-09-28T18:21:08.034Z,97250.31
2023-09-28T18:25:11.061Z,97275.09
2023-09-28T18:29:14.875Z,97278.63
2023-09-28T18:33:15.294Z,97279.53
2023-09-28T18:37:19.537Z,97283.31
2023-09-28T18:41:21.601Z,97260.97
2023-09-28T18:45:22.282Z,97270.53
2023-09-28T18:49:23.775Z,97261.63
2023-09-28T18:53:27.164Z,97290.03
2023-09-28T18:57:27.541Z,97286.47
2023-09-28T19:01:28.406Z,97293.44
2023-09-28T19:05:28.974Z,97275.84
2023-09-28T19:09:32.617Z,97289.50
2023-09-28T19:13:33.046Z,97271.56
2023-09-28T19:17:33.564Z,97286.13
2023-09-28T19:21:34.051Z,97299.47
2023-09-28T19:25:40.509Z,97304.22
2023-09-28T19:29:43.978Z,97301.91
2023-09-28T19:33:45.220Z,97313.13
2023-09-28T19:37:45.995Z,97324.81
2023-09-28T19:41:49.375Z,97330.63
2023-09-28T19:45:49.879Z,97328.41
2023-09-28T19:49:50.511Z,97306.94
2023-09-28T19:53:50.827Z,97319.56
2023-09-28T19:57:53.867Z,97313.25
2023-09-28T20:01:54.184Z,97291.69
2023-09-28T20:05:55.138Z,97298.16
2023-09-28T20:09:55.758Z,97311.59
2023-09-28T20:13:58.583Z,97309.75
2023-09-28T20:17:58.857Z,97310.63
2023-09-28T20:21:59.955Z,97302.59
2023-09-28T20:26:00.730Z,97302.59
2023-09-28T20:30:04.107Z,97310.44
2023-09-28T20:34:04.509Z,97305.34
2023-09-28T20:38:04.980Z,97323.66
2023-09-28T20:42:05.516Z,97310.53
2023-09-28T20:46:11.104Z,97305.97
2023-09-28T20:50:16.132Z,97320.97
2023-09-28T20:54:16.635Z,97316.22
2023-09-28T20:58:17.237Z,97322.09
2023-09-28T21:02:20.068Z,97325.59
2023-09-28T21:06:20.360Z,97329.91
2023-09-28T21:10:20.692Z,97332.63
2023-09-28T21:14:21.129Z,97333.13
2023-09-28T21:18:24.109Z,97330.16
2023-09-28T21:22:24.947Z,97328.03
2023-09-28T21:26:25.265Z,97292.63
2023-09-28T21:30:25.677Z,97325.38
2023-09-28T21:34:29.012Z,97337.94
2023-09-28T21:38:29.336Z,97332.59
2023-09-28T21:42:29.615Z,97336.34
2023-09-28T21:46:30.043Z,97336.06
2023-09-28T21:50:32.894Z,97318.06
2023-09-28T21:54:33.234Z,97322.63
2023-09-28T21:58:33.463Z,97334.13
2023-09-28T22:02:33.721Z,97337.13
2023-09-28T22:06:36.593Z,97344.09
2023-09-28T22:10:37.519Z,97334.41
2023-09-28T22:14:37.941Z,97333.34
2023-09-28T22:18:38.392Z,97334.94
2023-09-28T22:22:41.445Z,97346.19
2023-09-28T22:26:41.829Z,97354.16
2023-09-28T22:30:42.387Z,97360.03
2023-09-28T22:34:42.720Z,97355.13
2023-09-28T22:38:45.783Z,97355.69
2023-09-28T22:42:46.319Z,97355.13
2023-09-28T22:46:46.677Z,97345.78
2023-09-28T22:50:46.933Z,97359.47
2023-09-28T22:54:50.074Z,97358.84
2023-09-28T22:58:50.447Z,97358.41
2023-09-28T23:02:51.084Z,97352.53
2023-09-28T23:06:51.663Z,97361.22
2023-09-28T23:10:55.954Z,97358.34
2023-09-28T23:14:56.660Z,97359.78
2023-09-28T23:18:58.089Z,97366.84
2023-09-28T23:22:59.040Z,97367.81
2023-09-28T23:27:01.991Z,97358.03
2023-09-28T23:31:03.825Z,97346.75
2023-09-28T23:35:05.597Z,97365.34
2023-09-28T23:39:08.377Z,97359.53
2023-09-28T23:43:12.340Z,97346.75
2023-09-28T23:47:12.570Z,97331.06
2023-09-28T23:51:14.449Z,97359.25
2023-09-28T23:55:16.728Z,97359.78
2023-09-28T23:59:20.122Z,97359.47
